Airfield :
LOGIN :

Register | Disclaimer

   EN    FR    IT 

 










Legend :    VFR   Marginal VFR   IFR   Intensive IFR   Very Intensive IFR
Visi :
Ceiling :
>= 8 km
>= 3000ft
5 to 8 km
1000 to 3000 ft
1500m to 5 km
500 to 1000 ft
800 to 1500m
200 to 500 ft
< 800m
< 200 ft
Symbols :   Thunderstorms  Fog  Heavy snow  Heavy precipitations  Wind > 20 kt
SIGMETs :     Misc.  Thunderstorms  Icing  Turbulence  Mountain Waves  Volcanic Ashes






- Airport Elevation : 33 ft
- IATA code : MHZ


EGUN - RAF Mildenhall

CURRENT METAR :
  • 011455Z 27017G21KT 9999 BKN033 BKN200 09/08 A3015 RMK AO2A SLP213 T00940078 55002 $

EXPIRED METARs :
  • 011355Z 26014KT 9999 BKN039 OVC200 09/07 A3014 RMK AO2A PK WND 26028/1258 SLP210 T00920073 $
  • 011255Z 27020G27KT 9999 BKN037 BKN200 10/07 A3014 RMK AO2A PK WND 27028/25 SLP210 T00950069 $

TAF TAF EGUN
Valid from the 01 at 12:00 until the 02 at 18:00 UTC


011200Z 0112/0218 27012G22KT 9999 SCT030 SCT200 510005 QNH3015INS
TEMPO 0112/0116 27012G35KT
BECMG 0115/0116 27012G20KT 9999 SCT040 SCT200 620409 510005 QNH3015INS
BECMG 0205/0206 26012KT 9999 FEW050 SCT130 510005 QNH3022INS TX10/0113Z TN05/0206Z



MET'MAP, your aeronautical weather chart ! - Copyright ORBIFLY December 2007 - Disclaimer

ORBIFLY MET'MAP TEAM :

Programming & Development : Alexandra Zaïnal
Original concept : Baudouin d'Aumeries
Technical & hardware support : Manuel Goepfert
Assistance : Marc-Olivier Méhu




SOURCES & CREDITS :

   NOAA